KACV - Arcata/Eureka, California, USA
Updated: Tue, 31-Mar-2020 12:53pm PDT
Overcast
Overcast
 Wind from NW
Wind: NW 9 mph , 15 km/h
Temperature: 54°F , 12°C
Dew Point: 48°F , 9°C
Humidity: 82%
Barometer: 30.21 inHg , 1023 hPa
Clouds: Overcast
Visibility: 10 miles , 16 km
Cloud details: Partly Cloudy 700 ft
Overcast 1900 ft
2020/03/31 19:53 KACV 311953Z AUTO 32008KT 10SM SCT007 OVC019 12/09 A3021 RMK AO2 SLP236 T01170089

Metar display script from Saratoga-Weather.org